Time,TemperatureF,DewpointF,PressureIn,WindDirection,WindDirectionDegrees,WindSpeedMPH,WindSpeedGustMPH,Humidity,HourlyPrecipIn,Conditions,Clouds,dailyrainin,SoftwareType,DateUTC
2013-02-11 00:02:00,65.0,-99.9,30.06,SSW,209,4.0,6.0,-999,-99.99,,,-99.99,,2013-02-11 06:02:00,
2013-02-11 00:12:00,66.0,-99.9,30.06,SSW,192,6.0,11.0,-999,-99.99,,,-99.99,,2013-02-11 06:12:00,
2013-02-11 00:22:00,66.0,-99.9,30.06,South,186,8.0,10.0,-999,-99.99,,,-99.99,,2013-02-11 06:22:00,
2013-02-11 00:32:00,66.0,-99.9,30.06,SSW,200,4.0,8.0,-999,-99.99,,,-99.99,,2013-02-11 06:32:00,
2013-02-11 00:42:00,66.0,-99.9,30.06,SSW,195,4.0,8.0,-999,-99.99,,,-99.99,,2013-02-11 06:42:00,
2013-02-11 00:52:00,66.0,-99.9,30.06,South,191,4.0,7.0,-999,-99.99,,,-99.99,,2013-02-11 06:52:00,
2013-02-11 01:02:00,67.0,-99.9,30.06,South,189,5.0,9.0,-999,-99.99,,,-99.99,,2013-02-11 07:02:00,
2013-02-11 01:12:00,66.0,-99.9,30.06,SSW,204,3.0,6.0,-999,-99.99,,,-99.99,,2013-02-11 07:12:00,
2013-02-11 01:22:00,66.0,-99.9,30.06,South,189,2.0,6.0,-999,-99.99,,,-99.99,,2013-02-11 07:22:00,
2013-02-11 01:32:00,66.0,-99.9,30.06,SSW,207,2.0,4.0,-999,-99.99,,,-99.99,,2013-02-11 07:32:00,
2013-02-11 01:42:00,66.0,-99.9,30.06,SW,224,2.0,4.0,-999,-99.99,,,-99.99,,2013-02-11 07:42:00,
2013-02-11 01:52:00,66.0,-99.9,30.06,South,182,3.0,4.0,-999,-99.99,,,-99.99,,2013-02-11 07:52:00,
2013-02-11 02:01:00,65.0,-99.9,30.05,SSE,165,3.0,3.0,-999,-99.99,,,-99.99,,2013-02-11 08:01:00,
2013-02-11 02:11:00,65.0,-99.9,30.05,SSE,150,1.0,2.0,-999,-99.99,,,-99.99,,2013-02-11 08:11:00,
2013-02-11 02:22:00,65.0,-99.9,30.04,SE,145,4.0,4.0,-999,-99.99,,,-99.99,,2013-02-11 08:22:00,
2013-02-11 02:32:00,65.0,-99.9,30.04,SSE,150,4.0,5.0,-999,-99.99,,,-99.99,,2013-02-11 08:32:00,
2013-02-11 02:42:00,66.0,-99.9,30.04,South,169,4.0,7.0,-999,-99.99,,,-99.99,,2013-02-11 08:42:00,
2013-02-11 02:52:00,66.0,-99.9,30.03,South,180,4.0,7.0,-999,-99.99,,,-99.99,,2013-02-11 08:52:00,
2013-02-11 03:02:00,66.0,-99.9,30.04,South,189,4.0,6.0,-999,-99.99,,,-99.99,,2013-02-11 09:02:00,
2013-02-11 03:12:00,66.0,-99.9,30.04,SSW,207,3.0,4.0,-999,-99.99,,,-99.99,,2013-02-11 09:12:00,
2013-02-11 03:22:00,66.0,-99.9,30.04,SW,226,3.0,4.0,-999,-99.99,,,-99.99,,2013-02-11 09:22:00,
2013-02-11 03:32:00,66.0,-99.9,30.04,WSW,247,2.0,6.0,-999,-99.99,,,-99.99,,2013-02-11 09:32:00,
2013-02-11 03:42:00,67.0,-99.9,30.05,South,191,5.0,7.0,-999,-99.99,,,-99.99,,2013-02-11 09:42:00,
2013-02-11 03:52:00,67.0,-99.9,30.05,South,182,2.0,4.0,-999,-99.99,,,-99.99,,2013-02-11 09:52:00,
2013-02-11 04:02:00,66.0,-99.9,30.05,West,272,1.0,4.0,-999,-99.99,,,-99.99,,2013-02-11 10:02:00,
2013-02-11 04:11:00,67.0,-99.9,30.05,WSW,254,3.0,4.0,-999,-99.99,,,-99.99,,2013-02-11 10:11:00,
2013-02-11 04:22:00,66.0,-99.9,30.05,South,169,5.0,5.0,-999,-99.99,,,-99.99,,2013-02-11 10:22:00,
2013-02-11 04:32:00,66.0,-99.9,30.04,South,180,0.0,3.0,-999,-99.99,,,-99.99,,2013-02-11 10:32:00,
2013-02-11 04:42:00,66.0,-99.9,30.04,SSW,206,1.0,3.0,-999,-99.99,,,-99.99,,2013-02-11 10:42:00,
2013-02-11 04:52:00,67.0,-99.9,30.04,SW,228,1.0,1.0,-999,-99.99,,,-99.99,,2013-02-11 10:52:00,
2013-02-11 05:02:00,66.0,-99.9,30.04,SSE,155,1.0,3.0,-999,-99.99,,,-99.99,,2013-02-11 11:02:00,
2013-02-11 05:11:00,66.0,-99.9,30.04,SSE,158,2.0,3.0,-999,-99.99,,,-99.99,,2013-02-11 11:11:00,
2013-02-11 05:22:00,66.0,-99.9,30.03,SE,140,4.0,5.0,-999,-99.99,,,-99.99,,2013-02-11 11:22:00,
2013-02-11 05:32:00,65.0,-99.9,30.03,SE,142,4.0,5.0,-999,-99.99,,,-99.99,,2013-02-11 11:32:00,
2013-02-11 05:42:00,65.0,-99.9,30.03,SE,140,3.0,4.0,-999,-99.99,,,-99.99,,2013-02-11 11:42:00,
2013-02-11 05:52:00,65.0,-99.9,30.04,SSE,164,4.0,8.0,-999,-99.99,,,-99.99,,2013-02-11 11:52:00,
2013-02-11 06:03:00,65.0,-99.9,30.04,SSE,165,5.0,7.0,-999,-99.99,,,-99.99,,2013-02-11 12:03:00,
2013-02-11 06:12:00,65.0,-99.9,30.04,SSE,155,6.0,6.0,-999,-99.99,,,-99.99,,2013-02-11 12:12:00,
2013-02-11 06:22:00,66.0,-99.9,30.05,South,182,4.0,5.0,-999,-99.99,,,-99.99,,2013-02-11 12:22:00,
2013-02-11 06:32:00,65.0,-99.9,30.06,SSE,168,4.0,4.0,-999,-99.99,,,-99.99,,2013-02-11 12:32:00,
2013-02-11 06:43:00,65.0,-99.9,30.06,SE,138,4.0,4.0,-999,-99.99,,,-99.99,,2013-02-11 12:43:00,
2013-02-11 06:52:00,64.0,-99.9,30.06,SE,137,3.0,3.0,-999,-99.99,,,-99.99,,2013-02-11 12:52:00,
2013-02-11 07:02:00,64.0,-99.9,30.07,ESE,112,1.0,2.0,-999,-99.99,,,-99.99,,2013-02-11 13:02:00,
2013-02-11 07:12:00,64.0,-99.9,30.07,SE,129,1.0,2.0,-999,-99.99,,,-99.99,,2013-02-11 13:12:00,
2013-02-11 07:22:00,64.0,-99.9,30.07,WSW,258,0.0,2.0,-999,-99.99,,,-99.99,,2013-02-11 13:22:00,
2013-02-11 07:33:00,65.0,-99.9,30.08,South,188,1.0,2.0,-999,-99.99,,,-99.99,,2013-02-11 13:33:00,
2013-02-11 07:42:00,66.0,-99.9,30.08,SSE,164,1.0,3.0,-999,-99.99,,,-99.99,,2013-02-11 13:42:00,
2013-02-11 07:52:00,65.0,-99.9,30.08,SSE,160,1.0,2.0,-999,-99.99,,,-99.99,,2013-02-11 13:52:00,
2013-02-11 08:02:00,65.0,-99.9,30.09,South,177,1.0,2.0,-999,-99.99,,,-99.99,,2013-02-11 14:02:00,
2013-02-11 08:12:00,65.0,-99.9,30.09,WSW,237,1.0,2.0,-999,-99.99,,,-99.99,,2013-02-11 14:12:00,
2013-02-11 08:22:00,66.0,-99.9,30.09,SSE,165,3.0,3.0,-999,-99.99,,,-99.99,,2013-02-11 14:22:00,
2013-02-11 08:33:00,66.0,-99.9,30.10,South,171,2.0,2.0,-999,-99.99,,,-99.99,,2013-02-11 14:33:00,
2013-02-11 08:42:00,65.0,-99.9,30.10,SSE,161,2.0,4.0,-999,-99.99,,,-99.99,,2013-02-11 14:42:00,
2013-02-11 08:53:00,66.0,-99.9,30.10,SSE,168,3.0,4.0,-999,-99.99,,,-99.99,,2013-02-11 14:53:00,
2013-02-11 09:02:00,66.0,-99.9,30.10,South,183,3.0,4.0,-999,-99.99,,,-99.99,,2013-02-11 15:02:00,
2013-02-11 09:12:00,66.0,-99.9,30.10,South,170,2.0,4.0,-999,-99.99,,,-99.99,,2013-02-11 15:12:00,
2013-02-11 09:22:00,65.0,-99.9,30.10,SSE,150,6.0,7.0,-999,-99.99,,,-99.99,,2013-02-11 15:22:00,
2013-02-11 09:32:00,64.0,-99.9,30.11,SSE,162,4.0,6.0,-999,-99.99,,,-99.99,,2013-02-11 15:32:00,
2013-02-11 09:42:00,64.0,-99.9,30.11,SSE,153,5.0,5.0,-999,-99.99,,,-99.99,,2013-02-11 15:42:00,
2013-02-11 09:52:00,65.0,-99.9,30.11,SSE,159,5.0,6.0,-999,-99.99,,,-99.99,,2013-02-11 15:52:00,
2013-02-11 10:02:00,66.0,-99.9,30.11,South,172,3.0,5.0,-999,-99.99,,,-99.99,,2013-02-11 16:02:00,
2013-02-11 10:12:00,65.0,-99.9,30.11,SSE,167,4.0,5.0,-999,-99.99,,,-99.99,,2013-02-11 16:12:00,
2013-02-11 10:22:00,65.0,-99.9,30.11,SSE,151,4.0,4.0,-999,-99.99,,,-99.99,,2013-02-11 16:22:00,
2013-02-11 10:32:00,65.0,-99.9,30.11,SSE,149,4.0,5.0,-999,-99.99,,,-99.99,,2013-02-11 16:32:00,
2013-02-11 10:42:00,65.0,-99.9,30.11,SSE,151,4.0,6.0,-999,-99.99,,,-99.99,,2013-02-11 16:42:00,
2013-02-11 10:53:00,65.0,-99.9,30.11,SSE,162,2.0,3.0,-999,-99.99,,,-99.99,,2013-02-11 16:53:00,
2013-02-11 11:02:00,62.0,-99.9,30.12,NNE,14,21.0,36.0,-999,-99.99,,,-99.99,,2013-02-11 17:02:00,
2013-02-11 11:12:00,61.0,-99.9,30.12,NNE,15,25.0,29.0,-999,-99.99,,,-99.99,,2013-02-11 17:12:00,
2013-02-11 11:22:00,61.0,-99.9,30.11,NNE,18,21.0,31.0,-999,-99.99,,,-99.99,,2013-02-11 17:22:00,
2013-02-11 11:32:00,61.0,-99.9,30.11,North,5,22.0,28.0,-999,-99.99,,,-99.99,,2013-02-11 17:32:00,
2013-02-11 11:42:00,60.0,-99.9,30.12,North,5,26.0,28.0,-999,-99.99,,,-99.99,,2013-02-11 17:42:00,
2013-02-11 11:53:00,60.0,-99.9,30.11,North,6,23.0,27.0,-999,-99.99,,,-99.99,,2013-02-11 17:53:00,
2013-02-11 12:02:00,61.0,-99.9,30.10,North,6,23.0,28.0,-999,-99.99,,,-99.99,,2013-02-11 18:02:00,
2013-02-11 12:12:00,61.0,-99.9,30.11,North,5,25.0,32.0,-999,-99.99,,,-99.99,,2013-02-11 18:12:00,
2013-02-11 12:22:00,61.0,-99.9,30.10,North,8,26.0,29.0,-999,-99.99,,,-99.99,,2013-02-11 18:22:00,
2013-02-11 12:32:00,61.0,-99.9,30.10,North,10,24.0,30.0,-999,-99.99,,,-99.99,,2013-02-11 18:32:00,
2013-02-11 12:42:00,61.0,-99.9,30.12,North,354,25.0,27.0,-999,-99.99,,,-99.99,,2013-02-11 18:42:00,
2013-02-11 12:54:00,61.0,-99.9,30.11,NNE,19,23.0,26.0,-999,-99.99,,,-99.99,,2013-02-11 18:54:00,
2013-02-11 13:02:00,61.0,-99.9,30.10,NNE,16,21.0,26.0,-999,-99.99,,,-99.99,,2013-02-11 19:02:00,
2013-02-11 13:12:00,61.0,-99.9,30.10,North,11,20.0,23.0,-999,-99.99,,,-99.99,,2013-02-11 19:12:00,
2013-02-11 13:22:00,61.0,-99.9,30.11,North,5,18.0,23.0,-999,-99.99,,,-99.99,,2013-02-11 19:22:00,
2013-02-11 13:32:00,61.0,-99.9,30.11,North,5,18.0,23.0,-999,-99.99,,,-99.99,,2013-02-11 19:32:00,
2013-02-11 13:42:00,61.0,-99.9,30.11,North,5,18.0,23.0,-999,-99.99,,,-99.99,,2013-02-11 19:42:00,
2013-02-11 14:02:00,61.0,-99.9,30.09,North,8,18.0,22.0,-999,-99.99,,,-99.99,,2013-02-11 20:02:00,
2013-02-11 14:12:00,61.0,-99.9,30.09,North,5,19.0,23.0,-999,-99.99,,,-99.99,,2013-02-11 20:12:00,
2013-02-11 14:22:00,61.0,-99.9,30.09,North,5,17.0,22.0,-999,-99.99,,,-99.99,,2013-02-11 20:22:00,
2013-02-11 14:32:00,62.0,-99.9,30.09,North,10,18.0,23.0,-999,-99.99,,,-99.99,,2013-02-11 20:32:00,
2013-02-11 14:42:00,62.0,-99.9,30.08,NNE,17,21.0,24.0,-999,-99.99,,,-99.99,,2013-02-11 20:42:00,
2013-02-11 14:52:00,62.0,-99.9,30.07,NNE,22,21.0,25.0,-999,-99.99,,,-99.99,,2013-02-11 20:52:00,
2013-02-11 15:02:00,62.0,-99.9,30.07,NNE,23,17.0,21.0,-999,-99.99,,,-99.99,,2013-02-11 21:02:00,
2013-02-11 15:12:00,62.0,-99.9,30.07,NNE,23,17.0,21.0,-999,-99.99,,,-99.99,,2013-02-11 21:12:00,
2013-02-11 15:22:00,62.0,-99.9,30.07,NNE,28,17.0,20.0,-999,-99.99,,,-99.99,,2013-02-11 21:22:00,
2013-02-11 15:32:00,62.0,-99.9,30.07,NNE,30,17.0,18.0,-999,-99.99,,,-99.99,,2013-02-11 21:32:00,
2013-02-11 15:42:00,62.0,-99.9,30.07,NNE,29,11.0,17.0,-999,-99.99,,,-99.99,,2013-02-11 21:42:00,
2013-02-11 15:52:00,62.0,-99.9,30.06,NNE,32,28.0,31.0,-999,-99.99,,,-99.99,,2013-02-11 21:52:00,
2013-02-11 16:02:00,59.0,-99.9,30.07,NNE,25,23.0,27.0,-999,-99.99,,,-99.99,,2013-02-11 22:02:00,
2013-02-11 16:12:00,59.0,-99.9,30.08,NNE,20,22.0,24.0,-999,-99.99,,,-99.99,,2013-02-11 22:12:00,
2013-02-11 16:22:00,59.0,-99.9,30.08,NNE,20,22.0,24.0,-999,-99.99,,,-99.99,,2013-02-11 22:22:00,
2013-02-11 16:32:00,58.0,-99.9,30.07,NNE,20,20.0,24.0,-999,-99.99,,,-99.99,,2013-02-11 22:32:00,
2013-02-11 16:42:00,58.0,-99.9,30.07,NNE,30,22.0,23.0,-999,-99.99,,,-99.99,,2013-02-11 22:42:00,
2013-02-11 16:53:00,59.0,-99.9,30.07,NNE,21,20.0,23.0,-999,-99.99,,,-99.99,,2013-02-11 22:53:00,
2013-02-11 17:02:00,59.0,-99.9,30.06,NE,34,20.0,23.0,-999,-99.99,,,-99.99,,2013-02-11 23:02:00,
2013-02-11 17:12:00,59.0,-99.9,30.06,NE,35,20.0,24.0,-999,-99.99,,,-99.99,,2013-02-11 23:12:00,
2013-02-11 17:22:00,59.0,-99.9,30.05,NE,42,22.0,25.0,-999,-99.99,,,-99.99,,2013-02-11 23:22:00,
2013-02-11 17:32:00,59.0,-99.9,30.06,NE,39,19.0,22.0,-999,-99.99,,,-99.99,,2013-02-11 23:32:00,
2013-02-11 17:42:00,60.0,-99.9,30.06,NE,42,17.0,20.0,-999,-99.99,,,-99.99,,2013-02-11 23:42:00,
2013-02-11 17:53:00,60.0,-99.9,30.06,NE,47,16.0,18.0,-999,-99.99,,,-99.99,,2013-02-11 23:53:00,
2013-02-11 18:02:00,60.0,-99.9,30.07,NE,41,17.0,23.0,-999,-99.99,,,-99.99,,2013-02-12 00:02:00,
2013-02-11 18:12:00,60.0,-99.9,30.07,NE,41,17.0,23.0,-999,-99.99,,,-99.99,,2013-02-12 00:12:00,
2013-02-11 18:22:00,61.0,-99.9,30.07,NE,51,21.0,24.0,-999,-99.99,,,-99.99,,2013-02-12 00:22:00,
2013-02-11 18:32:00,61.0,-99.9,30.07,NE,52,20.0,24.0,-999,-99.99,,,-99.99,,2013-02-12 00:32:00,
2013-02-11 18:43:00,61.0,-99.9,30.07,NE,52,20.0,24.0,-999,-99.99,,,-99.99,,2013-02-12 00:43:00,
2013-02-11 18:52:00,61.0,-99.9,30.08,ENE,60,13.0,17.0,-999,-99.99,,,-99.99,,2013-02-12 00:52:00,
2013-02-11 19:02:00,61.0,-99.9,30.08,NE,53,14.0,22.0,-999,-99.99,,,-99.99,,2013-02-12 01:02:00,
2013-02-11 19:12:00,61.0,-99.9,30.07,NE,50,20.0,21.0,-999,-99.99,,,-99.99,,2013-02-12 01:12:00,
2013-02-11 19:22:00,61.0,-99.9,30.08,NE,55,18.0,21.0,-999,-99.99,,,-99.99,,2013-02-12 01:22:00,
2013-02-11 19:32:00,61.0,-99.9,30.07,ENE,59,21.0,23.0,-999,-99.99,,,-99.99,,2013-02-12 01:32:00,
2013-02-11 19:42:00,61.0,-99.9,30.07,ENE,59,21.0,23.0,-999,-99.99,,,-99.99,,2013-02-12 01:42:00,
2013-02-11 19:52:00,61.0,-99.9,30.07,ENE,71,21.0,24.0,-999,-99.99,,,-99.99,,2013-02-12 01:52:00,
2013-02-11 20:02:00,61.0,-99.9,30.08,NE,55,22.0,24.0,-999,-99.99,,,-99.99,,2013-02-12 02:02:00,
2013-02-11 20:12:00,61.0,-99.9,30.08,NE,55,22.0,24.0,-999,-99.99,,,-99.99,,2013-02-12 02:12:00,
2013-02-11 20:22:00,61.0,-99.9,30.09,NNE,17,16.0,21.0,-999,-99.99,,,-99.99,,2013-02-12 02:22:00,
2013-02-11 20:32:00,61.0,-99.9,30.06,NE,53,26.0,27.0,-999,-99.99,,,-99.99,,2013-02-12 02:32:00,
2013-02-11 20:42:00,60.0,-99.9,30.07,NE,47,22.0,26.0,-999,-99.99,,,-99.99,,2013-02-12 02:42:00,
2013-02-11 20:53:00,60.0,-99.9,30.08,NE,34,16.0,18.0,-999,-99.99,,,-99.99,,2013-02-12 02:53:00,
2013-02-11 21:02:00,61.0,-99.9,30.08,NE,41,15.0,20.0,-999,-99.99,,,-99.99,,2013-02-12 03:02:00,
2013-02-11 21:11:00,61.0,-99.9,30.08,NE,48,17.0,20.0,-999,-99.99,,,-99.99,,2013-02-12 03:11:00,
2013-02-11 21:21:00,61.0,-99.9,30.08,ENE,66,19.0,20.0,-999,-99.99,,,-99.99,,2013-02-12 03:21:00,
2013-02-11 21:32:00,61.0,-99.9,30.07,ENE,67,17.0,21.0,-999,-99.99,,,-99.99,,2013-02-12 03:32:00,
2013-02-11 21:42:00,61.0,-99.9,30.07,ENE,63,19.0,22.0,-999,-99.99,,,-99.99,,2013-02-12 03:42:00,
2013-02-11 21:52:00,61.0,-99.9,30.07,ENE,59,17.0,22.0,-999,-99.99,,,-99.99,,2013-02-12 03:52:00,
2013-02-11 22:01:00,61.0,-99.9,30.07,NE,55,18.0,20.0,-999,-99.99,,,-99.99,,2013-02-12 04:01:00,
2013-02-11 22:11:00,61.0,-99.9,30.07,ENE,60,17.0,20.0,-999,-99.99,,,-99.99,,2013-02-12 04:11:00,
2013-02-11 22:21:00,61.0,-99.9,30.07,NE,55,19.0,21.0,-999,-99.99,,,-99.99,,2013-02-12 04:21:00,
2013-02-11 22:32:00,61.0,-99.9,30.07,NE,52,17.0,19.0,-999,-99.99,,,-99.99,,2013-02-12 04:32:00,
2013-02-11 22:42:00,61.0,-99.9,30.07,NE,47,16.0,18.0,-999,-99.99,,,-99.99,,2013-02-12 04:42:00,
2013-02-11 22:52:00,61.0,-99.9,30.07,NE,50,15.0,18.0,-999,-99.99,,,-99.99,,2013-02-12 04:52:00,
2013-02-11 23:02:00,61.0,-99.9,30.07,NE,49,16.0,18.0,-999,-99.99,,,-99.99,,2013-02-12 05:02:00,
2013-02-11 23:11:00,61.0,-99.9,30.07,NE,51,16.0,19.0,-999,-99.99,,,-99.99,,2013-02-12 05:11:00,
2013-02-11 23:22:00,61.0,-99.9,30.06,NE,50,17.0,20.0,-999,-99.99,,,-99.99,,2013-02-12 05:22:00,
2013-02-11 23:32:00,61.0,-99.9,30.06,ENE,58,18.0,20.0,-999,-99.99,,,-99.99,,2013-02-12 05:32:00,
2013-02-11 23:42:00,61.0,-99.9,30.06,ENE,57,17.0,18.0,-999,-99.99,,,-99.99,,2013-02-12 05:42:00,
2013-02-11 23:52:00,61.0,-99.9,30.07,NE,41,13.0,15.0,-999,-99.99,,,-99.99,,2013-02-12 05:52:00,